Time,TemperatureF,DewpointF,PressureIn,WindDirection,WindDirectionDegrees,WindSpeedMPH,WindSpeedGustMPH,Humidity,HourlyPrecipIn,Conditions,Clouds,dailyrainin,SoftwareType,DateUTC
2013-07-20 00:01:00,77.7,72.5,29.96,ESE,117,0.0,1.0,84,0.00,,,0.00,WUHU216DAVISVP2,2013-07-20 04:01:00,
2013-07-20 00:06:00,77.7,72.5,29.96,ESE,117,0.0,1.0,84,0.00,,,0.00,WUHU216DAVISVP2,2013-07-20 04:06:00,
2013-07-20 00:11:00,77.7,72.5,29.96,ESE,117,0.0,0.0,84,0.00,,,0.00,WUHU216DAVISVP2,2013-07-20 04:11:00,
2013-07-20 00:16:00,77.7,72.8,29.96,ESE,117,0.0,0.0,85,0.00,,,0.00,WUHU216DAVISVP2,2013-07-20 04:16:00,
2013-07-20 00:21:00,77.7,72.9,29.96,ESE,117,0.0,0.0,85,0.00,,,0.00,WUHU216DAVISVP2,2013-07-20 04:21:00,
2013-07-20 00:26:00,77.9,73.1,29.96,ESE,117,0.0,0.0,85,0.00,,,0.00,WUHU216DAVISVP2,2013-07-20 04:26:00,
2013-07-20 00:31:00,77.9,73.1,29.95,ESE,117,0.0,0.0,85,0.00,,,0.00,WUHU216DAVISVP2,2013-07-20 04:31:00,
2013-07-20 00:36:00,77.9,73.0,29.95,ESE,117,0.0,0.0,85,0.00,,,0.00,WUHU216DAVISVP2,2013-07-20 04:36:00,
2013-07-20 00:41:00,78.1,73.2,29.95,ESE,117,0.0,0.0,85,0.00,,,0.00,WUHU216DAVISVP2,2013-07-20 04:41:00,
2013-07-20 00:46:00,78.1,73.3,29.95,ESE,106,0.0,0.0,85,0.00,,,0.00,WUHU216DAVISVP2,2013-07-20 04:46:00,
2013-07-20 00:52:00,78.1,73.3,29.95,East,93,0.0,0.0,85,0.00,,,0.00,WUHU216DAVISVP2,2013-07-20 04:52:00,
2013-07-20 00:57:00,78.1,73.3,29.95,East,93,0.0,0.0,85,0.00,,,0.00,WUHU216DAVISVP2,2013-07-20 04:57:00,
2013-07-20 01:02:00,78.1,73.3,29.95,East,93,0.0,0.0,85,0.00,,,0.00,WUHU216DAVISVP2,2013-07-20 05:02:00,
2013-07-20 01:07:00,78.1,73.3,29.95,ESE,109,0.0,0.0,85,0.00,,,0.00,WUHU216DAVISVP2,2013-07-20 05:07:00,
2013-07-20 01:12:00,78.1,73.3,29.95,ESE,117,0.0,0.0,85,0.00,,,0.00,WUHU216DAVISVP2,2013-07-20 05:12:00,
2013-07-20 01:17:00,78.1,73.3,29.94,ESE,117,0.0,0.0,85,0.00,,,0.00,WUHU216DAVISVP2,2013-07-20 05:17:00,
2013-07-20 01:22:00,78.3,73.4,29.94,ESE,117,0.0,0.0,85,0.00,,,0.00,WUHU216DAVISVP2,2013-07-20 05:22:00,
2013-07-20 01:27:00,78.1,73.6,29.94,ESE,117,0.0,0.0,86,0.00,,,0.00,WUHU216DAVISVP2,2013-07-20 05:27:00,
2013-07-20 01:32:00,78.1,73.6,29.94,ESE,117,0.0,0.0,86,0.00,,,0.00,WUHU216DAVISVP2,2013-07-20 05:32:00,
2013-07-20 01:37:00,78.1,73.6,29.94,SE,140,0.0,2.0,86,0.00,,,0.00,WUHU216DAVISVP2,2013-07-20 05:37:00,
2013-07-20 01:42:00,78.3,73.8,29.94,East,86,0.0,2.0,86,0.00,,,0.00,WUHU216DAVISVP2,2013-07-20 05:42:00,
2013-07-20 01:47:00,78.1,73.6,29.94,East,86,0.0,1.0,86,0.00,,,0.00,WUHU216DAVISVP2,2013-07-20 05:47:00,
2013-07-20 01:52:00,77.9,73.4,29.94,SSW,195,0.0,4.0,86,0.00,,,0.00,WUHU216DAVISVP2,2013-07-20 05:52:00,
2013-07-20 01:57:00,77.9,73.4,29.94,SSW,195,0.0,4.0,86,0.00,,,0.00,WUHU216DAVISVP2,2013-07-20 05:57:00,
2013-07-20 02:02:00,77.9,73.4,29.93,SE,126,0.0,0.0,86,0.00,,,0.00,WUHU216DAVISVP2,2013-07-20 06:02:00,
2013-07-20 02:07:00,77.9,73.4,29.93,SE,126,0.0,0.0,86,0.00,,,0.00,WUHU216DAVISVP2,2013-07-20 06:07:00,
2013-07-20 02:12:00,77.9,73.4,29.93,SE,126,0.0,0.0,86,0.00,,,0.00,WUHU216DAVISVP2,2013-07-20 06:12:00,
2013-07-20 02:17:00,77.7,73.2,29.93,SE,126,0.0,0.0,86,0.00,,,0.00,WUHU216DAVISVP2,2013-07-20 06:17:00,
2013-07-20 02:22:00,77.7,73.2,29.93,East,89,0.0,0.0,86,0.00,,,0.00,WUHU216DAVISVP2,2013-07-20 06:22:00,
2013-07-20 02:27:00,77.9,73.4,29.93,SSW,195,0.0,1.0,86,0.00,,,0.00,WUHU216DAVISVP2,2013-07-20 06:27:00,
2013-07-20 02:32:00,77.7,73.2,29.93,SSW,195,0.0,1.0,86,0.00,,,0.00,WUHU216DAVISVP2,2013-07-20 06:32:00,
2013-07-20 02:37:00,77.7,73.2,29.93,SSW,195,0.0,0.0,86,0.00,,,0.00,WUHU216DAVISVP2,2013-07-20 06:37:00,
2013-07-20 02:42:00,77.7,73.2,29.93,SSW,195,0.0,0.0,86,0.00,,,0.00,WUHU216DAVISVP2,2013-07-20 06:42:00,
2013-07-20 02:47:00,77.9,73.4,29.93,ESE,120,0.0,0.0,86,0.00,,,0.00,WUHU216DAVISVP2,2013-07-20 06:47:00,
2013-07-20 02:52:00,77.7,73.5,29.93,ESE,120,0.0,0.0,87,0.00,,,0.00,WUHU216DAVISVP2,2013-07-20 06:52:00,
2013-07-20 02:57:00,77.6,73.4,29.93,ESE,120,0.0,0.0,87,0.00,,,0.00,WUHU216DAVISVP2,2013-07-20 06:57:00,
2013-07-20 03:02:00,77.7,73.5,29.93,ESE,120,0.0,0.0,87,0.00,,,0.00,WUHU216DAVISVP2,2013-07-20 07:02:00,
2013-07-20 03:07:00,77.7,73.5,29.93,ESE,120,0.0,0.0,87,0.00,,,0.00,WUHU216DAVISVP2,2013-07-20 07:07:00,
2013-07-20 03:12:00,77.6,73.4,29.93,ESE,120,0.0,0.0,87,0.00,,,0.00,WUHU216DAVISVP2,2013-07-20 07:12:00,
2013-07-20 03:17:00,77.6,73.4,29.93,ESE,114,0.0,0.0,87,0.00,,,0.00,WUHU216DAVISVP2,2013-07-20 07:17:00,
2013-07-20 03:22:00,77.6,73.4,29.93,ESE,107,0.0,0.0,87,0.00,,,0.00,WUHU216DAVISVP2,2013-07-20 07:22:00,
2013-07-20 03:27:00,77.7,73.5,29.93,ENE,76,1.0,2.0,87,0.00,,,0.00,WUHU216DAVISVP2,2013-07-20 07:27:00,
2013-07-20 03:32:00,77.6,73.4,29.93,ENE,76,0.0,2.0,87,0.00,,,0.00,WUHU216DAVISVP2,2013-07-20 07:32:00,
2013-07-20 03:37:00,77.7,73.5,29.93,ENE,76,0.0,0.0,87,0.00,,,0.00,WUHU216DAVISVP2,2013-07-20 07:37:00,
2013-07-20 03:42:00,77.6,73.4,29.93,ENE,76,0.0,0.0,87,0.00,,,0.00,WUHU216DAVISVP2,2013-07-20 07:42:00,
2013-07-20 03:47:00,77.6,73.4,29.94,ENE,76,0.0,0.0,87,0.00,,,0.00,WUHU216DAVISVP2,2013-07-20 07:47:00,
2013-07-20 03:52:00,77.6,73.4,29.94,ENE,76,0.0,0.0,87,0.00,,,0.00,WUHU216DAVISVP2,2013-07-20 07:52:00,
2013-07-20 03:57:00,77.7,73.5,29.94,ENE,76,0.0,2.0,87,0.00,,,0.00,WUHU216DAVISVP2,2013-07-20 07:57:00,
2013-07-20 04:02:00,77.6,73.4,29.94,ENE,76,0.0,2.0,87,0.00,,,0.00,WUHU216DAVISVP2,2013-07-20 08:02:00,
2013-07-20 04:07:00,77.7,73.5,29.94,ENE,76,0.0,0.0,87,0.00,,,0.00,WUHU216DAVISVP2,2013-07-20 08:07:00,
2013-07-20 04:12:00,77.6,73.4,29.94,ENE,76,0.0,0.0,87,0.00,,,0.00,WUHU216DAVISVP2,2013-07-20 08:12:00,
2013-07-20 04:18:00,77.6,73.4,29.94,ENE,76,0.0,0.0,87,0.00,,,0.00,WUHU216DAVISVP2,2013-07-20 08:18:00,
2013-07-20 04:23:00,77.6,73.8,29.94,ENE,76,0.0,1.0,88,0.00,,,0.00,WUHU216DAVISVP2,2013-07-20 08:23:00,
2013-07-20 04:28:00,77.6,73.8,29.94,ENE,76,0.0,1.0,88,0.00,,,0.00,WUHU216DAVISVP2,2013-07-20 08:28:00,
2013-07-20 04:33:00,77.6,73.8,29.94,ENE,76,0.0,0.0,88,0.00,,,0.00,WUHU216DAVISVP2,2013-07-20 08:33:00,
2013-07-20 04:38:00,77.4,73.6,29.94,ENE,76,0.0,0.0,88,0.00,,,0.00,WUHU216DAVISVP2,2013-07-20 08:38:00,
2013-07-20 04:43:00,77.4,73.6,29.94,ENE,76,0.0,0.0,88,0.00,,,0.00,WUHU216DAVISVP2,2013-07-20 08:43:00,
2013-07-20 04:48:00,77.2,73.4,29.94,ENE,76,0.0,0.0,88,0.00,,,0.00,WUHU216DAVISVP2,2013-07-20 08:48:00,
2013-07-20 04:53:00,77.2,73.4,29.94,ENE,76,0.0,0.0,88,0.00,,,0.00,WUHU216DAVISVP2,2013-07-20 08:53:00,
2013-07-20 04:58:00,77.4,73.6,29.94,ENE,72,0.0,0.0,88,0.00,,,0.00,WUHU216DAVISVP2,2013-07-20 08:58:00,
2013-07-20 05:03:00,77.2,73.4,29.94,ENE,72,0.0,0.0,88,0.00,,,0.00,WUHU216DAVISVP2,2013-07-20 09:03:00,
2013-07-20 05:08:00,77.2,73.4,29.94,ENE,72,0.0,0.0,88,0.00,,,0.00,WUHU216DAVISVP2,2013-07-20 09:08:00,
2013-07-20 05:13:00,77.2,73.4,29.94,ENE,72,0.0,1.0,88,0.00,,,0.00,WUHU216DAVISVP2,2013-07-20 09:13:00,
2013-07-20 05:18:00,77.2,73.4,29.94,ENE,71,0.0,1.0,88,0.00,,,0.00,WUHU216DAVISVP2,2013-07-20 09:18:00,
2013-07-20 05:23:00,77.2,73.4,29.94,ENE,71,0.0,1.0,88,0.00,,,0.00,WUHU216DAVISVP2,2013-07-20 09:23:00,
2013-07-20 05:28:00,77.0,73.2,29.94,ENE,71,0.0,1.0,88,0.00,,,0.00,WUHU216DAVISVP2,2013-07-20 09:28:00,
2013-07-20 05:33:00,77.0,73.2,29.94,NNW,336,0.0,1.0,88,0.00,,,0.00,WUHU216DAVISVP2,2013-07-20 09:33:00,
2013-07-20 05:38:00,77.0,73.2,29.94,North,0,0.0,1.0,88,0.00,,,0.00,WUHU216DAVISVP2,2013-07-20 09:38:00,
2013-07-20 05:43:00,76.8,73.0,29.94,North,0,0.0,0.0,88,0.00,,,0.00,WUHU216DAVISVP2,2013-07-20 09:43:00,
2013-07-20 05:48:00,76.8,73.0,29.94,ESE,117,0.0,2.0,88,0.00,,,0.00,WUHU216DAVISVP2,2013-07-20 09:48:00,
2013-07-20 05:53:00,77.0,73.2,29.94,ESE,113,0.0,2.0,88,0.00,,,0.00,WUHU216DAVISVP2,2013-07-20 09:53:00,
2013-07-20 05:58:00,77.2,73.4,29.94,SE,138,0.0,1.0,88,0.00,,,0.00,WUHU216DAVISVP2,2013-07-20 09:58:00,
2013-07-20 06:03:00,77.2,73.4,29.95,East,92,0.0,1.0,88,0.00,,,0.00,WUHU216DAVISVP2,2013-07-20 10:03:00,
2013-07-20 06:08:00,77.0,73.2,29.95,East,83,0.0,2.0,88,0.00,,,0.00,WUHU216DAVISVP2,2013-07-20 10:08:00,
2013-07-20 06:13:00,77.0,73.2,29.95,East,83,0.0,2.0,88,0.00,,,0.00,WUHU216DAVISVP2,2013-07-20 10:13:00,
2013-07-20 06:18:00,77.2,73.4,29.95,East,83,0.0,0.0,88,0.00,,,0.00,WUHU216DAVISVP2,2013-07-20 10:18:00,
2013-07-20 06:23:00,77.0,73.2,29.95,East,83,0.0,0.0,88,0.00,,,0.00,WUHU216DAVISVP2,2013-07-20 10:23:00,
2013-07-20 06:28:00,77.0,73.2,29.95,East,83,0.0,0.0,88,0.00,,,0.00,WUHU216DAVISVP2,2013-07-20 10:28:00,
2013-07-20 06:33:00,77.0,73.2,29.95,East,83,0.0,0.0,88,0.00,,,0.00,WUHU216DAVISVP2,2013-07-20 10:33:00,
2013-07-20 06:38:00,77.0,73.2,29.95,East,80,0.0,1.0,88,0.00,,,0.00,WUHU216DAVISVP2,2013-07-20 10:38:00,
2013-07-20 06:43:00,77.0,73.2,29.95,ENE,78,0.0,1.0,88,0.00,,,0.00,WUHU216DAVISVP2,2013-07-20 10:43:00,
2013-07-20 06:48:00,77.0,73.2,29.95,NNE,23,0.0,1.0,88,0.00,,,0.00,WUHU216DAVISVP2,2013-07-20 10:48:00,
2013-07-20 06:53:00,77.0,73.2,29.95,NNE,23,0.0,0.0,88,0.00,,,0.00,WUHU216DAVISVP2,2013-07-20 10:53:00,
2013-07-20 06:58:00,77.0,73.2,29.95,NNE,23,0.0,0.0,88,0.00,,,0.00,WUHU216DAVISVP2,2013-07-20 10:58:00,
2013-07-20 07:03:00,77.0,73.2,29.95,NNE,13,0.0,1.0,88,0.00,,,0.00,WUHU216DAVISVP2,2013-07-20 11:03:00,
2013-07-20 07:08:00,77.0,73.2,29.95,NE,44,0.0,1.0,88,0.00,,,0.00,WUHU216DAVISVP2,2013-07-20 11:08:00,
2013-07-20 07:13:00,77.0,73.2,29.95,NE,41,0.0,1.0,88,0.00,,,0.00,WUHU216DAVISVP2,2013-07-20 11:13:00,
2013-07-20 07:18:00,77.0,73.2,29.96,NW,325,0.0,2.0,88,0.00,,,0.00,WUHU216DAVISVP2,2013-07-20 11:18:00,
2013-07-20 07:23:00,77.0,73.2,29.96,NW,325,0.0,2.0,88,0.00,,,0.00,WUHU216DAVISVP2,2013-07-20 11:23:00,
2013-07-20 07:28:00,77.2,73.4,29.96,NW,325,0.0,0.0,88,0.00,,,0.00,WUHU216DAVISVP2,2013-07-20 11:28:00,
2013-07-20 07:33:00,77.2,73.4,29.97,NW,313,1.0,1.0,88,0.00,,,0.00,WUHU216DAVISVP2,2013-07-20 11:33:00,
2013-07-20 07:38:00,77.2,73.0,29.97,NNE,17,0.0,2.0,87,0.00,,,0.00,WUHU216DAVISVP2,2013-07-20 11:38:00,
2013-07-20 07:43:00,77.2,73.0,29.97,ENE,69,0.0,2.0,87,0.00,,,0.00,WUHU216DAVISVP2,2013-07-20 11:43:00,
2013-07-20 07:48:00,77.2,73.0,29.97,ENE,69,0.0,0.0,87,0.00,,,0.00,WUHU216DAVISVP2,2013-07-20 11:48:00,
2013-07-20 07:53:00,77.4,73.2,29.97,NNE,14,0.0,4.0,87,0.00,,,0.00,WUHU216DAVISVP2,2013-07-20 11:53:00,
2013-07-20 07:58:00,77.4,73.2,29.97,NNE,14,0.0,4.0,87,0.00,,,0.00,WUHU216DAVISVP2,2013-07-20 11:58:00,
2013-07-20 08:03:00,77.2,73.0,29.97,NW,312,0.0,1.0,87,0.00,,,0.00,WUHU216DAVISVP2,2013-07-20 12:03:00,
2013-07-20 08:08:00,77.4,73.2,29.97,North,0,0.0,1.0,87,0.00,,,0.00,WUHU216DAVISVP2,2013-07-20 12:08:00,
2013-07-20 08:13:00,77.4,72.9,29.97,East,85,0.0,2.0,86,0.00,,,0.00,WUHU216DAVISVP2,2013-07-20 12:13:00,
2013-07-20 08:18:00,77.4,72.9,29.97,West,264,0.0,2.0,86,0.00,,,0.00,WUHU216DAVISVP2,2013-07-20 12:18:00,
2013-07-20 08:23:00,77.6,73.1,29.97,West,280,0.0,2.0,86,0.00,,,0.00,WUHU216DAVISVP2,2013-07-20 12:23:00,
2013-07-20 08:28:00,77.7,73.2,29.97,East,83,0.0,4.0,86,0.00,,,0.00,WUHU216DAVISVP2,2013-07-20 12:28:00,
2013-07-20 08:33:00,77.9,73.4,29.97,East,83,0.0,4.0,86,0.00,,,0.00,WUHU216DAVISVP2,2013-07-20 12:33:00,
2013-07-20 08:38:00,78.3,73.8,29.97,ENE,75,0.0,1.0,86,0.00,,,0.00,WUHU216DAVISVP2,2013-07-20 12:38:00,
2013-07-20 08:43:00,78.5,73.7,29.97,NW,312,0.0,1.0,85,0.00,,,0.00,WUHU216DAVISVP2,2013-07-20 12:43:00,
2013-07-20 08:48:00,78.6,73.7,29.96,ENE,64,0.0,2.0,85,0.00,,,0.00,WUHU216DAVISVP2,2013-07-20 12:48:00,
2013-07-20 08:53:00,78.5,73.3,29.96,NNE,30,0.0,2.0,84,0.00,,,0.00,WUHU216DAVISVP2,2013-07-20 12:53:00,
2013-07-20 08:59:00,78.5,73.3,29.96,NNE,28,0.0,1.0,84,0.00,,,0.00,WUHU216DAVISVP2,2013-07-20 12:59:00,
2013-07-20 09:04:00,78.3,73.1,29.96,NNE,18,1.0,4.0,84,0.00,,,0.00,WUHU216DAVISVP2,2013-07-20 13:04:00,
2013-07-20 09:09:00,78.5,73.3,29.96,NNE,16,1.0,4.0,84,0.00,,,0.00,WUHU216DAVISVP2,2013-07-20 13:09:00,
2013-07-20 09:14:00,78.6,73.4,29.96,NE,38,0.0,2.0,84,0.00,,,0.00,WUHU216DAVISVP2,2013-07-20 13:14:00,
2013-07-20 09:19:00,78.6,73.4,29.96,ENE,64,0.0,2.0,84,0.00,,,0.00,WUHU216DAVISVP2,2013-07-20 13:19:00,
2013-07-20 09:24:00,78.6,73.4,29.96,NNE,25,0.0,2.0,84,0.00,,,0.00,WUHU216DAVISVP2,2013-07-20 13:24:00,
2013-07-20 09:31:00,78.6,73.4,29.96,SSW,209,0.0,6.0,84,0.00,,,0.00,WUHU216DAVISVP2,2013-07-20 13:31:00,
2013-07-20 09:36:00,78.6,73.4,29.96,WNW,282,1.0,6.0,84,0.00,,,0.00,WUHU216DAVISVP2,2013-07-20 13:36:00,
2013-07-20 09:41:00,78.6,73.4,29.96,NW,322,0.0,4.0,84,0.00,,,0.00,WUHU216DAVISVP2,2013-07-20 13:41:00,
2013-07-20 09:46:00,78.8,73.6,29.96,NE,52,0.0,4.0,84,0.00,,,0.00,WUHU216DAVISVP2,2013-07-20 13:46:00,
2013-07-20 09:51:00,79.0,73.4,29.96,NE,40,0.0,4.0,83,0.00,,,0.00,WUHU216DAVISVP2,2013-07-20 13:51:00,
2013-07-20 09:56:00,79.2,73.7,29.96,NNE,31,0.0,1.0,83,0.00,,,0.00,WUHU216DAVISVP2,2013-07-20 13:56:00,
2013-07-20 10:01:00,79.4,73.8,29.96,ESE,103,0.0,2.0,83,0.00,,,0.00,WUHU216DAVISVP2,2013-07-20 14:01:00,
2013-07-20 10:06:00,79.6,74.1,29.96,WNW,298,1.0,2.0,83,0.00,,,0.00,WUHU216DAVISVP2,2013-07-20 14:06:00,
2013-07-20 10:11:00,79.4,73.8,29.96,NE,51,0.0,8.0,83,0.00,,,0.00,WUHU216DAVISVP2,2013-07-20 14:11:00,
2013-07-20 10:16:00,79.8,74.2,29.96,NNW,330,0.0,8.0,83,0.00,,,0.00,WUHU216DAVISVP2,2013-07-20 14:16:00,
2013-07-20 10:21:00,79.9,74.3,29.96,NNW,346,0.0,2.0,83,0.00,,,0.00,WUHU216DAVISVP2,2013-07-20 14:21:00,
2013-07-20 10:26:00,79.9,74.0,29.96,NW,315,1.0,4.0,82,0.00,,,0.00,WUHU216DAVISVP2,2013-07-20 14:26:00,
2013-07-20 10:31:00,80.3,74.4,29.95,NE,44,0.0,6.0,82,0.00,,,0.00,WUHU216DAVISVP2,2013-07-20 14:31:00,
2013-07-20 10:36:00,81.1,74.7,29.95,ENE,71,6.0,6.0,81,0.00,,,0.00,WUHU216DAVISVP2,2013-07-20 14:36:00,
2013-07-20 10:41:00,81.2,74.9,29.95,NW,311,0.0,6.0,81,0.00,,,0.00,WUHU216DAVISVP2,2013-07-20 14:41:00,
2013-07-20 10:46:00,81.4,74.8,29.95,NW,316,0.0,6.0,80,0.00,,,0.00,WUHU216DAVISVP2,2013-07-20 14:46:00,
2013-07-20 10:51:00,81.4,74.6,29.95,WNW,282,0.0,2.0,80,0.00,,,0.00,WUHU216DAVISVP2,2013-07-20 14:51:00,
2013-07-20 10:56:00,81.6,74.9,29.95,NNE,28,0.0,2.0,80,0.00,,,0.00,WUHU216DAVISVP2,2013-07-20 14:56:00,
2013-07-20 11:01:00,81.2,74.6,29.96,NNE,18,0.0,1.0,80,0.00,,,0.00,WUHU216DAVISVP2,2013-07-20 15:01:00,
2013-07-20 11:06:00,80.9,74.3,29.96,East,89,0.0,4.0,80,0.00,,,0.00,WUHU216DAVISVP2,2013-07-20 15:06:00,
2013-07-20 11:11:00,80.7,74.1,29.96,East,79,0.0,4.0,80,0.00,,,0.00,WUHU216DAVISVP2,2013-07-20 15:11:00,
2013-07-20 11:16:00,80.7,74.1,29.96,NNE,20,0.0,1.0,80,0.00,,,0.00,WUHU216DAVISVP2,2013-07-20 15:16:00,
2013-07-20 11:21:00,80.9,74.6,29.96,North,8,0.0,1.0,81,0.00,,,0.00,WUHU216DAVISVP2,2013-07-20 15:21:00,
2013-07-20 11:26:00,80.9,74.3,29.96,North,352,0.0,1.0,80,0.00,,,0.00,WUHU216DAVISVP2,2013-07-20 15:26:00,
2013-07-20 11:31:00,81.1,74.8,29.97,North,356,0.0,0.0,81,0.00,,,0.00,WUHU216DAVISVP2,2013-07-20 15:31:00,
2013-07-20 11:36:00,81.2,74.6,29.97,NE,51,0.0,1.0,80,0.00,,,0.00,WUHU216DAVISVP2,2013-07-20 15:36:00,
2013-07-20 11:41:00,81.6,74.9,29.97,NE,54,0.0,1.0,80,0.00,,,0.00,WUHU216DAVISVP2,2013-07-20 15:41:00,
2013-07-20 11:46:00,82.0,75.3,29.96,North,0,0.0,2.0,80,0.00,,,0.00,WUHU216DAVISVP2,2013-07-20 15:46:00,
2013-07-20 11:51:00,82.6,75.9,29.96,South,186,0.0,2.0,80,0.00,,,0.00,WUHU216DAVISVP2,2013-07-20 15:51:00,
2013-07-20 11:56:00,83.0,75.8,29.96,NNE,13,0.0,2.0,79,0.00,,,0.00,WUHU216DAVISVP2,2013-07-20 15:56:00,
2013-07-20 12:01:00,82.8,75.2,29.95,ENE,78,0.0,4.0,78,0.00,,,0.00,WUHU216DAVISVP2,2013-07-20 16:01:00,
2013-07-20 12:06:00,83.4,76.3,29.95,NE,45,0.0,4.0,79,0.00,,,0.00,WUHU216DAVISVP2,2013-07-20 16:06:00,
2013-07-20 12:11:00,83.4,76.0,29.95,North,354,0.0,2.0,78,0.00,,,0.00,WUHU216DAVISVP2,2013-07-20 16:11:00,
2013-07-20 12:16:00,83.4,75.6,29.95,West,272,0.0,2.0,77,0.00,,,0.00,WUHU216DAVISVP2,2013-07-20 16:16:00,
2013-07-20 12:21:00,83.4,75.4,29.95,NE,38,0.0,2.0,77,0.00,,,0.00,WUHU216DAVISVP2,2013-07-20 16:21:00,
2013-07-20 12:26:00,83.4,75.6,29.95,NE,38,0.0,0.0,77,0.00,,,0.00,WUHU216DAVISVP2,2013-07-20 16:26:00,
2013-07-20 12:31:00,83.4,75.6,29.95,ESE,109,0.0,0.0,77,0.00,,,0.00,WUHU216DAVISVP2,2013-07-20 16:31:00,
2013-07-20 12:36:00,83.4,75.4,29.95,ESE,110,0.0,0.0,77,0.00,,,0.00,WUHU216DAVISVP2,2013-07-20 16:36:00,
2013-07-20 12:41:00,83.6,76.2,29.95,NNW,346,0.0,1.0,78,0.00,,,0.00,WUHU216DAVISVP2,2013-07-20 16:41:00,
2013-07-20 12:46:00,84.3,77.1,29.95,North,352,0.0,1.0,79,0.00,,,0.00,WUHU216DAVISVP2,2013-07-20 16:46:00,
2013-07-20 12:51:00,84.5,76.7,29.95,NNW,342,0.0,4.0,77,0.00,,,0.00,WUHU216DAVISVP2,2013-07-20 16:51:00,
2013-07-20 12:56:00,84.7,76.9,29.95,NNW,342,0.0,4.0,77,0.00,,,0.00,WUHU216DAVISVP2,2013-07-20 16:56:00,
2013-07-20 13:01:00,84.9,76.5,29.94,NNW,343,0.0,0.0,76,0.00,,,0.00,WUHU216DAVISVP2,2013-07-20 17:01:00,
2013-07-20 13:06:00,85.1,77.2,29.94,NNW,336,1.0,6.0,77,0.00,,,0.00,WUHU216DAVISVP2,2013-07-20 17:06:00,
2013-07-20 13:11:00,84.9,76.3,29.94,NE,40,0.0,6.0,75,0.00,,,0.00,WUHU216DAVISVP2,2013-07-20 17:11:00,
2013-07-20 13:16:00,84.9,76.3,29.93,NNW,333,0.0,4.0,75,0.00,,,0.00,WUHU216DAVISVP2,2013-07-20 17:16:00,
2013-07-20 13:21:00,84.7,76.5,29.93,East,93,0.0,2.0,76,0.00,,,0.00,WUHU216DAVISVP2,2013-07-20 17:21:00,
2013-07-20 13:26:00,84.9,75.9,29.93,SE,130,0.0,4.0,74,0.00,,,0.00,WUHU216DAVISVP2,2013-07-20 17:26:00,
2013-07-20 13:31:00,85.1,76.5,29.92,East,80,0.0,4.0,75,0.00,,,0.00,WUHU216DAVISVP2,2013-07-20 17:31:00,
2013-07-20 13:36:00,85.1,76.3,29.92,NNE,30,0.0,1.0,75,0.00,,,0.00,WUHU216DAVISVP2,2013-07-20 17:36:00,
2013-07-20 13:41:00,84.9,76.1,29.92,West,265,0.0,4.0,75,0.00,,,0.00,WUHU216DAVISVP2,2013-07-20 17:41:00,
2013-07-20 13:46:00,85.1,76.5,29.91,North,359,0.0,4.0,75,0.00,,,0.00,WUHU216DAVISVP2,2013-07-20 17:46:00,
2013-07-20 13:51:00,85.1,76.5,29.91,East,89,0.0,2.0,75,0.00,,,0.00,WUHU216DAVISVP2,2013-07-20 17:51:00,
2013-07-20 13:56:00,85.3,76.5,29.91,SW,220,0.0,1.0,75,0.00,,,0.00,WUHU216DAVISVP2,2013-07-20 17:56:00,
2013-07-20 14:01:00,85.5,77.3,29.91,ENE,72,0.0,1.0,76,0.00,,,0.00,WUHU216DAVISVP2,2013-07-20 18:01:00,
2013-07-20 14:06:00,85.7,76.5,29.91,NE,52,2.0,2.0,74,0.00,,,0.00,WUHU216DAVISVP2,2013-07-20 18:06:00,
2013-07-20 14:11:00,85.9,76.5,29.91,East,83,0.0,4.0,73,0.00,,,0.00,WUHU216DAVISVP2,2013-07-20 18:11:00,
2013-07-20 14:16:00,86.1,76.4,29.90,SW,219,0.0,4.0,73,0.00,,,0.00,WUHU216DAVISVP2,2013-07-20 18:16:00,
2013-07-20 14:22:00,86.3,76.2,29.90,NE,40,0.0,2.0,72,0.00,,,0.00,WUHU216DAVISVP2,2013-07-20 18:22:00,
2013-07-20 14:27:00,86.1,76.3,29.90,ENE,71,0.0,4.0,72,0.00,,,0.00,WUHU216DAVISVP2,2013-07-20 18:27:00,
2013-07-20 14:32:00,85.9,76.1,29.90,NE,45,0.0,4.0,72,0.00,,,0.00,WUHU216DAVISVP2,2013-07-20 18:32:00,
2013-07-20 14:38:00,85.7,75.9,29.90,ENE,75,1.0,4.0,72,0.00,,,0.00,WUHU216DAVISVP2,2013-07-20 18:38:00,
2013-07-20 14:43:00,85.7,76.0,29.90,NW,320,0.0,2.0,73,0.00,,,0.00,WUHU216DAVISVP2,2013-07-20 18:43:00,
2013-07-20 14:48:00,85.9,76.5,29.90,SSE,168,0.0,2.0,73,0.00,,,0.00,WUHU216DAVISVP2,2013-07-20 18:48:00,
2013-07-20 14:53:00,86.1,76.7,29.90,NNW,335,0.0,2.0,73,0.00,,,0.00,WUHU216DAVISVP2,2013-07-20 18:53:00,
2013-07-20 14:58:00,86.5,76.6,29.90,NNW,346,0.0,2.0,72,0.00,,,0.00,WUHU216DAVISVP2,2013-07-20 18:58:00,
2013-07-20 15:03:00,86.3,75.8,29.89,NW,311,0.0,2.0,71,0.00,,,0.00,WUHU216DAVISVP2,2013-07-20 19:03:00,
2013-07-20 15:08:00,86.7,77.2,29.89,WNW,299,0.0,2.0,73,0.00,,,0.00,WUHU216DAVISVP2,2013-07-20 19:08:00,
2013-07-20 15:14:00,87.2,77.3,29.89,NE,34,0.0,2.0,72,0.00,,,0.00,WUHU216DAVISVP2,2013-07-20 19:14:00,
2013-07-20 15:19:00,87.8,77.2,29.89,NE,40,0.0,4.0,71,0.00,,,0.00,WUHU216DAVISVP2,2013-07-20 19:19:00,
2013-07-20 15:24:00,88.4,78.2,29.89,East,83,0.0,4.0,72,0.00,,,0.00,WUHU216DAVISVP2,2013-07-20 19:24:00,
2013-07-20 15:29:00,88.6,77.6,29.88,SSW,193,2.0,2.0,70,0.00,,,0.00,WUHU216DAVISVP2,2013-07-20 19:29:00,
2013-07-20 15:34:00,88.8,77.2,29.88,North,0,1.0,2.0,68,0.00,,,0.00,WUHU216DAVISVP2,2013-07-20 19:34:00,
2013-07-20 15:40:00,89.0,77.1,29.88,NE,51,0.0,2.0,68,0.00,,,0.00,WUHU216DAVISVP2,2013-07-20 19:40:00,
2013-07-20 15:45:00,88.8,77.2,29.88,ENE,71,0.0,8.0,68,0.00,,,0.00,WUHU216DAVISVP2,2013-07-20 19:45:00,
2013-07-20 15:50:00,88.8,76.7,29.88,NNE,17,0.0,8.0,67,0.00,,,0.00,WUHU216DAVISVP2,2013-07-20 19:50:00,
2013-07-20 15:55:00,88.8,77.3,29.88,West,275,0.0,2.0,69,0.00,,,0.00,WUHU216DAVISVP2,2013-07-20 19:55:00,
2013-07-20 16:00:00,88.8,77.6,29.87,West,281,0.0,4.0,69,0.00,,,0.00,WUHU216DAVISVP2,2013-07-20 20:00:00,
2013-07-20 16:05:00,88.8,76.7,29.87,NNW,332,0.0,4.0,67,0.00,,,0.00,WUHU216DAVISVP2,2013-07-20 20:05:00,
2013-07-20 16:10:00,89.0,77.4,29.87,West,263,0.0,2.0,68,0.00,,,0.00,WUHU216DAVISVP2,2013-07-20 20:10:00,
2013-07-20 16:16:00,89.0,76.6,29.86,East,99,0.0,2.0,67,0.00,,,0.00,WUHU216DAVISVP2,2013-07-20 20:16:00,
2013-07-20 16:21:00,88.6,76.2,29.86,ESE,113,4.0,4.0,67,0.00,,,0.00,WUHU216DAVISVP2,2013-07-20 20:21:00,
2013-07-20 16:26:00,88.6,77.4,29.86,NNE,23,1.0,4.0,69,0.00,,,0.00,WUHU216DAVISVP2,2013-07-20 20:26:00,
2013-07-20 16:31:00,88.4,76.5,29.85,West,270,0.0,4.0,68,0.00,,,0.00,WUHU216DAVISVP2,2013-07-20 20:31:00,
2013-07-20 16:36:00,88.2,76.1,29.85,ENE,75,0.0,8.0,67,0.00,,,0.00,WUHU216DAVISVP2,2013-07-20 20:36:00,
2013-07-20 16:41:00,88.2,75.4,29.85,NE,48,0.0,8.0,66,0.00,,,0.00,WUHU216DAVISVP2,2013-07-20 20:41:00,
2013-07-20 16:46:00,88.4,76.8,29.85,NE,49,1.0,2.0,68,0.00,,,0.00,WUHU216DAVISVP2,2013-07-20 20:46:00,
2013-07-20 16:51:00,88.6,77.4,29.85,ESE,119,0.0,1.0,69,0.00,,,0.00,WUHU216DAVISVP2,2013-07-20 20:51:00,
2013-07-20 16:56:00,88.6,76.7,29.85,NNW,342,2.0,6.0,68,0.00,,,0.00,WUHU216DAVISVP2,2013-07-20 20:56:00,
2013-07-20 17:02:00,88.2,75.7,29.86,South,186,0.0,6.0,66,0.00,,,0.00,WUHU216DAVISVP2,2013-07-20 21:02:00,
2013-07-20 17:07:00,88.0,76.0,29.86,NNE,21,0.0,4.0,67,0.00,,,0.00,WUHU216DAVISVP2,2013-07-20 21:07:00,
2013-07-20 17:12:00,87.8,75.8,29.86,ENE,69,0.0,2.0,67,0.00,,,0.00,WUHU216DAVISVP2,2013-07-20 21:12:00,
2013-07-20 17:17:00,88.0,76.0,29.86,NW,305,0.0,2.0,67,0.00,,,0.00,WUHU216DAVISVP2,2013-07-20 21:17:00,
2013-07-20 17:23:00,88.0,76.4,29.86,ENE,64,0.0,2.0,68,0.00,,,0.00,WUHU216DAVISVP2,2013-07-20 21:23:00,
2013-07-20 17:28:00,88.2,75.7,29.86,NW,322,0.0,8.0,66,0.00,,,0.00,WUHU216DAVISVP2,2013-07-20 21:28:00,
2013-07-20 17:33:00,88.6,76.5,29.85,NW,325,0.0,8.0,67,0.00,,,0.00,WUHU216DAVISVP2,2013-07-20 21:33:00,
2013-07-20 17:38:00,88.6,76.5,29.85,NW,323,0.0,4.0,67,0.00,,,0.00,WUHU216DAVISVP2,2013-07-20 21:38:00,
2013-07-20 17:44:00,88.8,76.7,29.85,North,11,0.0,1.0,67,0.00,,,0.00,WUHU216DAVISVP2,2013-07-20 21:44:00,
2013-07-20 17:49:00,88.8,76.7,29.85,NE,37,0.0,1.0,67,0.00,,,0.00,WUHU216DAVISVP2,2013-07-20 21:49:00,
2013-07-20 17:54:00,88.6,76.1,29.85,SSE,152,0.0,1.0,66,0.00,,,0.00,WUHU216DAVISVP2,2013-07-20 21:54:00,
2013-07-20 17:59:00,88.6,76.1,29.85,North,353,0.0,2.0,66,0.00,,,0.00,WUHU216DAVISVP2,2013-07-20 21:59:00,
2013-07-20 18:05:00,88.6,77.0,29.85,NNE,27,0.0,2.0,68,0.00,,,0.00,WUHU216DAVISVP2,2013-07-20 22:05:00,
2013-07-20 18:10:00,88.0,76.4,29.85,NNE,28,0.0,1.0,68,0.00,,,0.00,WUHU216DAVISVP2,2013-07-20 22:10:00,
2013-07-20 18:15:00,87.6,76.0,29.85,NW,326,0.0,1.0,68,0.00,,,0.00,WUHU216DAVISVP2,2013-07-20 22:15:00,
2013-07-20 18:20:00,87.4,76.7,29.85,NW,326,0.0,0.0,70,0.00,,,0.00,WUHU216DAVISVP2,2013-07-20 22:20:00,
2013-07-20 18:25:00,87.0,76.5,29.85,NW,326,0.0,0.0,71,0.00,,,0.00,WUHU216DAVISVP2,2013-07-20 22:25:00,
2013-07-20 18:30:00,86.3,76.2,29.85,NW,326,0.0,0.0,72,0.00,,,0.00,WUHU216DAVISVP2,2013-07-20 22:30:00,
2013-07-20 18:35:00,85.7,75.9,29.85,NW,326,0.0,0.0,72,0.00,,,0.00,WUHU216DAVISVP2,2013-07-20 22:35:00,
2013-07-20 18:40:00,85.5,76.1,29.85,NW,326,0.0,0.0,73,0.00,,,0.00,WUHU216DAVISVP2,2013-07-20 22:40:00,
2013-07-20 18:45:00,84.7,75.7,29.85,West,267,0.0,0.0,74,0.00,,,0.00,WUHU216DAVISVP2,2013-07-20 22:45:00,
2013-07-20 18:50:00,84.3,75.7,29.85,West,267,0.0,0.0,75,0.00,,,0.00,WUHU216DAVISVP2,2013-07-20 22:50:00,
2013-07-20 18:55:00,84.0,75.4,29.85,West,267,0.0,0.0,75,0.00,,,0.00,WUHU216DAVISVP2,2013-07-20 22:55:00,
2013-07-20 19:00:00,83.8,75.4,29.86,West,267,0.0,0.0,76,0.00,,,0.00,WUHU216DAVISVP2,2013-07-20 23:00:00,
2013-07-20 19:06:00,83.4,75.0,29.86,West,267,0.0,0.0,76,0.00,,,0.00,WUHU216DAVISVP2,2013-07-20 23:06:00,
2013-07-20 19:11:00,83.2,75.2,29.86,West,267,0.0,0.0,77,0.00,,,0.00,WUHU216DAVISVP2,2013-07-20 23:11:00,
2013-07-20 19:17:00,83.0,75.2,29.86,West,267,0.0,0.0,77,0.00,,,0.00,WUHU216DAVISVP2,2013-07-20 23:17:00,
2013-07-20 19:22:00,82.8,74.8,29.86,West,267,0.0,0.0,77,0.00,,,0.00,WUHU216DAVISVP2,2013-07-20 23:22:00,
2013-07-20 19:27:00,82.6,75.2,29.86,West,267,0.0,0.0,78,0.00,,,0.00,WUHU216DAVISVP2,2013-07-20 23:27:00,
2013-07-20 19:32:00,82.4,75.0,29.87,West,267,0.0,0.0,78,0.00,,,0.00,WUHU216DAVISVP2,2013-07-20 23:32:00,
2013-07-20 19:37:00,82.2,74.8,29.87,West,265,0.0,0.0,78,0.00,,,0.00,WUHU216DAVISVP2,2013-07-20 23:37:00,
2013-07-20 19:42:00,82.0,74.6,29.87,West,265,0.0,0.0,78,0.00,,,0.00,WUHU216DAVISVP2,2013-07-20 23:42:00,
2013-07-20 19:48:00,81.8,74.8,29.88,West,265,0.0,0.0,79,0.00,,,0.00,WUHU216DAVISVP2,2013-07-20 23:48:00,
2013-07-20 19:53:00,81.6,74.6,29.88,West,265,0.0,0.0,79,0.00,,,0.00,WUHU216DAVISVP2,2013-07-20 23:53:00,
2013-07-20 19:58:00,81.4,74.3,29.88,West,265,0.0,0.0,79,0.00,,,0.00,WUHU216DAVISVP2,2013-07-20 23:58:00,
2013-07-20 20:03:00,81.4,74.4,29.89,West,265,0.0,0.0,79,0.00,,,0.00,WUHU216DAVISVP2,2013-07-21 00:03:00,
2013-07-20 20:08:00,81.2,74.6,29.89,West,265,0.0,0.0,80,0.00,,,0.00,WUHU216DAVISVP2,2013-07-21 00:08:00,
2013-07-20 20:13:00,81.2,74.4,29.89,West,265,0.0,0.0,80,0.00,,,0.00,WUHU216DAVISVP2,2013-07-21 00:13:00,
2013-07-20 20:18:00,81.1,74.5,29.89,West,265,0.0,0.0,80,0.00,,,0.00,WUHU216DAVISVP2,2013-07-21 00:18:00,
2013-07-20 20:23:00,81.1,74.5,29.89,West,265,0.0,0.0,80,0.00,,,0.00,WUHU216DAVISVP2,2013-07-21 00:23:00,
2013-07-20 20:28:00,80.9,74.6,29.89,West,265,0.0,0.0,81,0.00,,,0.00,WUHU216DAVISVP2,2013-07-21 00:28:00,
2013-07-20 20:33:00,80.7,74.4,29.89,West,265,0.0,0.0,81,0.00,,,0.00,WUHU216DAVISVP2,2013-07-21 00:33:00,
2013-07-20 20:38:00,80.7,74.3,29.89,NW,322,0.0,0.0,81,0.00,,,0.00,WUHU216DAVISVP2,2013-07-21 00:38:00,
2013-07-20 20:44:00,80.3,73.9,29.89,NW,323,0.0,0.0,81,0.00,,,0.00,WUHU216DAVISVP2,2013-07-21 00:44:00,
2013-07-20 20:49:00,80.3,73.9,29.89,NW,323,0.0,0.0,81,0.00,,,0.00,WUHU216DAVISVP2,2013-07-21 00:49:00,
2013-07-20 20:54:00,79.9,74.0,29.89,NW,323,0.0,0.0,82,0.00,,,0.00,WUHU216DAVISVP2,2013-07-21 00:54:00,
2013-07-20 20:59:00,79.9,74.0,29.89,NW,323,0.0,0.0,82,0.00,,,0.00,WUHU216DAVISVP2,2013-07-21 00:59:00,
2013-07-20 21:04:00,79.8,73.9,29.89,NW,323,0.0,0.0,82,0.00,,,0.00,WUHU216DAVISVP2,2013-07-21 01:04:00,
2013-07-20 21:10:00,79.6,73.7,29.89,NW,323,0.0,0.0,82,0.00,,,0.00,WUHU216DAVISVP2,2013-07-21 01:10:00,
2013-07-20 21:15:00,79.6,73.7,29.90,NW,323,0.0,0.0,82,0.00,,,0.00,WUHU216DAVISVP2,2013-07-21 01:15:00,
2013-07-20 21:20:00,79.4,73.5,29.90,NW,323,0.0,0.0,82,0.00,,,0.00,WUHU216DAVISVP2,2013-07-21 01:20:00,
2013-07-20 21:25:00,79.2,73.3,29.90,NW,323,0.0,0.0,82,0.00,,,0.00,WUHU216DAVISVP2,2013-07-21 01:25:00,
2013-07-20 21:30:00,79.2,73.3,29.89,NW,323,0.0,0.0,82,0.00,,,0.00,WUHU216DAVISVP2,2013-07-21 01:30:00,
2013-07-20 21:35:00,79.0,73.5,29.89,NW,323,0.0,0.0,83,0.00,,,0.00,WUHU216DAVISVP2,2013-07-21 01:35:00,
2013-07-20 21:40:00,78.8,73.3,29.89,NW,323,0.0,0.0,83,0.00,,,0.00,WUHU216DAVISVP2,2013-07-21 01:40:00,
2013-07-20 21:45:00,78.8,73.3,29.90,NW,323,0.0,0.0,83,0.00,,,0.00,WUHU216DAVISVP2,2013-07-21 01:45:00,
2013-07-20 21:50:00,78.6,73.1,29.90,NW,323,0.0,0.0,83,0.00,,,0.00,WUHU216DAVISVP2,2013-07-21 01:50:00,
2013-07-20 21:55:00,78.6,73.1,29.90,NW,323,0.0,0.0,83,0.00,,,0.00,WUHU216DAVISVP2,2013-07-21 01:55:00,
2013-07-20 22:00:00,78.5,73.0,29.90,NW,323,0.0,0.0,83,0.00,,,0.00,WUHU216DAVISVP2,2013-07-21 02:00:00,
2013-07-20 22:06:00,78.5,73.0,29.90,NW,323,0.0,0.0,83,0.00,,,0.00,WUHU216DAVISVP2,2013-07-21 02:06:00,
2013-07-20 22:12:00,78.5,73.0,29.90,NW,322,0.0,0.0,83,0.00,,,0.00,WUHU216DAVISVP2,2013-07-21 02:12:00,
2013-07-20 22:17:00,78.5,73.3,29.91,NW,323,0.0,0.0,84,0.00,,,0.00,WUHU216DAVISVP2,2013-07-21 02:17:00,
2013-07-20 22:22:00,78.5,73.3,29.91,NW,323,0.0,0.0,84,0.00,,,0.00,WUHU216DAVISVP2,2013-07-21 02:22:00,
2013-07-20 22:27:00,78.5,73.3,29.91,NW,323,0.0,0.0,84,0.00,,,0.00,WUHU216DAVISVP2,2013-07-21 02:27:00,
2013-07-20 22:32:00,78.5,73.3,29.92,NW,323,0.0,0.0,84,0.00,,,0.00,WUHU216DAVISVP2,2013-07-21 02:32:00,
2013-07-20 22:38:00,78.5,73.3,29.92,NW,323,0.0,0.0,84,0.00,,,0.00,WUHU216DAVISVP2,2013-07-21 02:38:00,
2013-07-20 22:43:00,78.3,73.1,29.92,NW,323,0.0,0.0,84,0.00,,,0.00,WUHU216DAVISVP2,2013-07-21 02:43:00,
2013-07-20 22:48:00,78.3,73.1,29.91,NW,323,0.0,0.0,84,0.00,,,0.00,WUHU216DAVISVP2,2013-07-21 02:48:00,
2013-07-20 22:53:00,78.3,73.5,29.91,NW,322,0.0,0.0,85,0.00,,,0.00,WUHU216DAVISVP2,2013-07-21 02:53:00,
2013-07-20 22:58:00,78.3,73.5,29.91,NW,323,0.0,0.0,85,0.00,,,0.00,WUHU216DAVISVP2,2013-07-21 02:58:00,
2013-07-20 23:04:00,78.1,73.3,29.91,NW,323,0.0,0.0,85,0.00,,,0.00,WUHU216DAVISVP2,2013-07-21 03:04:00,
2013-07-20 23:09:00,78.1,73.3,29.91,NW,322,0.0,0.0,85,0.00,,,0.00,WUHU216DAVISVP2,2013-07-21 03:09:00,
2013-07-20 23:14:00,78.3,73.4,29.91,NW,322,0.0,0.0,85,0.00,,,0.00,WUHU216DAVISVP2,2013-07-21 03:14:00,
2013-07-20 23:19:00,78.3,73.5,29.91,NW,323,0.0,0.0,85,0.00,,,0.00,WUHU216DAVISVP2,2013-07-21 03:19:00,
2013-07-20 23:24:00,78.3,73.4,29.91,NW,322,0.0,0.0,85,0.00,,,0.00,WUHU216DAVISVP2,2013-07-21 03:24:00,
2013-07-20 23:29:00,78.5,73.7,29.91,SE,137,0.0,0.0,85,0.00,,,0.00,WUHU216DAVISVP2,2013-07-21 03:29:00,
2013-07-20 23:34:00,78.5,73.7,29.91,SE,137,0.0,0.0,85,0.00,,,0.00,WUHU216DAVISVP2,2013-07-21 03:34:00,
2013-07-20 23:39:00,78.3,73.5,29.91,NNW,329,0.0,2.0,85,0.00,,,0.00,WUHU216DAVISVP2,2013-07-21 03:39:00,
2013-07-20 23:44:00,78.5,73.7,29.91,ENE,73,0.0,2.0,85,0.00,,,0.00,WUHU216DAVISVP2,2013-07-21 03:44:00,
2013-07-20 23:49:00,78.3,73.5,29.91,ESE,116,0.0,0.0,85,0.00,,,0.00,WUHU216DAVISVP2,2013-07-21 03:49:00,
2013-07-20 23:54:00,78.5,73.7,29.91,East,95,0.0,2.0,85,0.00,,,0.00,WUHU216DAVISVP2,2013-07-21 03:54:00,
2013-07-20 23:59:00,78.3,73.5,29.91,NNW,343,0.0,2.0,85,0.00,,,0.00,WUHU216DAVISVP2,2013-07-21 03:59:00,